createdAt,value
2019-01-20T00:00:50.416Z,97104.98
2019-01-20T00:03:18.552Z,97102.30
2019-01-20T00:05:46.707Z,97099.70
2019-01-20T00:08:15.000Z,97100.09
2019-01-20T00:10:43.254Z,97099.48
2019-01-20T00:13:11.408Z,97105.33
2019-01-20T00:15:39.832Z,97097.37
2019-01-20T00:18:07.993Z,97097.26
2019-01-20T00:20:36.203Z,97094.35
2019-01-20T00:23:04.409Z,97087.09
2019-01-20T00:25:32.585Z,97088.63
2019-01-20T00:28:00.752Z,97085.68
2019-01-20T00:30:28.963Z,97085.30
2019-01-20T00:32:57.116Z,97087.48
2019-01-20T00:35:25.482Z,97096.72
2019-01-20T00:37:53.682Z,97093.78
2019-01-20T00:40:21.856Z,97091.67
2019-01-20T00:42:50.036Z,97095.38
2019-01-20T00:45:18.223Z,97091.67
2019-01-20T00:47:46.384Z,97090.08
2019-01-20T00:50:14.941Z,97047.70
2019-01-20T00:52:43.113Z,97088.28
2019-01-20T00:55:12.359Z,97087.25
2019-01-20T00:57:40.930Z,97087.05
2019-01-20T01:00:17.783Z,97087.67
2019-01-20T01:02:46.092Z,97086.52
2019-01-20T01:05:14.399Z,97084.38
2019-01-20T01:07:42.645Z,97098.86
2019-01-20T01:10:10.869Z,97092.64
2019-01-20T01:12:39.534Z,97091.56
2019-01-20T01:15:08.252Z,97100.20
2019-01-20T01:17:36.442Z,97098.75
2019-01-20T01:20:05.348Z,97103.59
2019-01-20T01:22:33.587Z,97104.45
2019-01-20T01:25:01.862Z,97105.89
2019-01-20T01:27:30.033Z,97101.42
2019-01-20T01:29:58.204Z,97100.31
2019-01-20T01:32:26.384Z,97100.24
2019-01-20T01:34:54.616Z,97103.91
2019-01-20T01:37:22.828Z,97102.88
2019-01-20T01:39:51.053Z,97096.37
2019-01-20T01:42:19.175Z,97098.75
2019-01-20T01:44:47.338Z,97098.55
2019-01-20T01:47:15.577Z,97100.20
2019-01-20T01:49:43.772Z,97099.39
2019-01-20T01:52:12.011Z,97095.39
2019-01-20T01:54:40.213Z,97093.74
2019-01-20T01:57:08.382Z,97094.12
2019-01-20T01:59:36.664Z,97094.66
2019-01-20T02:02:04.860Z,97088.77
2019-01-20T02:04:33.055Z,97087.39
2019-01-20T02:07:01.281Z,97088.84
2019-01-20T02:09:29.447Z,97085.61
2019-01-20T02:11:57.634Z,97087.89
2019-01-20T02:14:25.782Z,97089.45
2019-01-20T02:16:53.954Z,97095.18
2019-01-20T02:19:22.133Z,97088.73
2019-01-20T02:21:50.348Z,97086.05
2019-01-20T02:24:18.574Z,97083.16
2019-01-20T02:26:46.785Z,97007.11
2019-01-20T02:29:14.983Z,97087.74
2019-01-20T02:31:43.136Z,97090.30
2019-01-20T02:34:11.395Z,97087.02
2019-01-20T02:36:39.578Z,97087.92
2019-01-20T02:39:07.795Z,97088.50
2019-01-20T02:41:35.960Z,97089.99
2019-01-20T02:44:04.143Z,97092.29
2019-01-20T02:46:32.340Z,97089.22
2019-01-20T02:49:00.526Z,97080.48
2019-01-20T02:51:28.725Z,97083.16
2019-01-20T02:53:56.947Z,97078.52
2019-01-20T02:56:26.202Z,97076.92
2019-01-20T02:58:54.426Z,97074.98
2019-01-20T03:01:22.632Z,97074.75
2019-01-20T03:03:50.820Z,97075.59
2019-01-20T03:06:19.017Z,97076.16
2019-01-20T03:08:47.144Z,97071.39
2019-01-20T03:11:15.326Z,97073.56
2019-01-20T03:13:43.538Z,97074.41
2019-01-20T03:16:11.687Z,97078.69
2019-01-20T03:18:40.041Z,97073.87
2019-01-20T03:21:08.220Z,97072.95
2019-01-20T03:23:36.403Z,97080.48
2019-01-20T03:26:04.662Z,97076.92
2019-01-20T03:28:32.832Z,97077.50
2019-01-20T03:31:01.005Z,97077.08
2019-01-20T03:33:29.206Z,97075.74
2019-01-20T03:35:57.453Z,97072.11
2019-01-20T03:38:25.635Z,97069.20
2019-01-20T03:40:53.801Z,97067.72
2019-01-20T03:43:21.947Z,97065.84
2019-01-20T03:45:50.129Z,97070.40
2019-01-20T03:48:18.306Z,97066.65
2019-01-20T03:50:46.478Z,97072.04
2019-01-20T03:53:14.631Z,97072.64
2019-01-20T03:55:42.795Z,97077.83
2019-01-20T03:58:11.080Z,97072.61
2019-01-20T04:00:39.269Z,97072.95
2019-01-20T04:03:07.898Z,96999.34
2019-01-20T04:05:36.077Z,97074.89
2019-01-20T04:08:04.274Z,97072.41
2019-01-20T04:10:32.475Z,97075.32
2019-01-20T04:13:00.682Z,97075.89
2019-01-20T04:15:28.986Z,97076.73
2019-01-20T04:17:57.222Z,97075.63
2019-01-20T04:20:25.400Z,97078.60
2019-01-20T04:22:53.594Z,97076.23
2019-01-20T04:25:21.867Z,97077.88
2019-01-20T04:27:50.074Z,97072.83
2019-01-20T04:30:18.971Z,97067.86
2019-01-20T04:32:47.235Z,97068.78
2019-01-20T04:35:15.482Z,97067.86
2019-01-20T04:37:43.775Z,97066.75
2019-01-20T04:40:13.330Z,97066.41
2019-01-20T04:42:41.585Z,97068.81
2019-01-20T04:45:10.479Z,97066.45
2019-01-20T04:47:38.715Z,97063.97
2019-01-20T04:50:08.310Z,97065.48
2019-01-20T04:52:36.534Z,97071.63
2019-01-20T04:55:05.158Z,97076.11
2019-01-20T05:00:10.775Z,97075.64
2019-01-20T05:02:38.930Z,97074.77
2019-01-20T05:05:07.169Z,97078.02
2019-01-20T05:07:35.347Z,97081.45
2019-01-20T05:10:03.605Z,97079.69
2019-01-20T05:12:37.569Z,97080.19
2019-01-20T05:15:01.822Z,97080.91
2019-01-20T05:17:30.028Z,97080.72
2019-01-20T05:19:58.183Z,97077.81
2019-01-20T05:22:26.528Z,97076.18
2019-01-20T05:24:54.729Z,97072.97
2019-01-20T05:27:22.963Z,97075.14
2019-01-20T05:29:51.199Z,97077.52
2019-01-20T05:32:19.529Z,97082.92
2019-01-20T05:34:47.785Z,97082.92
2019-01-20T05:37:16.073Z,97078.05
2019-01-20T05:39:44.356Z,97077.95
2019-01-20T05:42:12.543Z,97079.59
2019-01-20T05:44:40.859Z,97083.53
2019-01-20T05:47:28.267Z,97085.78
2019-01-20T05:49:56.467Z,97085.67
2019-01-20T05:52:24.691Z,97089.41
2019-01-20T05:54:52.939Z,97084.03
2019-01-20T05:57:21.183Z,97090.64
2019-01-20T05:59:49.357Z,97084.73
2019-01-20T06:02:36.538Z,97088.32
2019-01-20T06:07:39.049Z,97087.91
2019-01-20T06:10:07.921Z,97090.92
2019-01-20T06:12:55.205Z,97089.55
2019-01-20T06:15:23.791Z,97095.80
2019-01-20T06:17:51.977Z,97090.32
2019-01-20T06:20:20.139Z,97093.73
2019-01-20T06:22:48.361Z,97093.23
2019-01-20T06:25:16.577Z,97092.44
2019-01-20T06:27:44.800Z,97093.17
2019-01-20T06:30:32.084Z,97088.86
2019-01-20T06:33:00.340Z,97090.80
2019-01-20T06:35:28.547Z,97094.27
2019-01-20T06:37:56.780Z,97093.77
2019-01-20T06:40:25.000Z,97093.97
2019-01-20T06:42:53.285Z,97103.55
2019-01-20T06:45:21.536Z,97101.38
2019-01-20T06:47:49.752Z,97105.16
2019-01-20T06:50:17.974Z,97109.33
2019-01-20T06:52:46.225Z,97114.55
2019-01-20T06:55:14.441Z,97117.05
2019-01-20T06:57:42.616Z,97124.46
2019-01-20T07:00:12.318Z,97120.79
2019-01-20T07:02:40.509Z,97126.27
2019-01-20T07:05:08.798Z,97129.67
2019-01-20T07:07:36.993Z,97132.88
2019-01-20T07:10:05.582Z,97140.59
2019-01-20T07:15:21.991Z,97144.91
2019-01-20T07:17:50.226Z,97148.11
2019-01-20T07:20:18.399Z,97150.78
2019-01-20T07:25:20.103Z,97151.58
2019-01-20T07:27:48.389Z,97158.06
2019-01-20T07:30:35.697Z,97163.20
2019-01-20T07:35:39.342Z,97169.98
2019-01-20T07:38:07.640Z,97169.48
2019-01-20T07:40:35.796Z,97173.25
2019-01-20T07:43:03.940Z,97175.69
2019-01-20T07:45:51.186Z,97176.13
2019-01-20T07:48:38.243Z,97177.86
2019-01-20T07:51:06.412Z,97177.06
2019-01-20T07:53:34.560Z,97187.21
2019-01-20T07:56:21.805Z,97187.63
2019-01-20T07:58:50.022Z,97187.77
2019-01-20T08:01:18.175Z,97187.39
2019-01-20T08:03:46.318Z,97192.83
2019-01-20T08:06:14.468Z,97197.64
2019-01-20T08:08:42.617Z,97200.34
2019-01-20T08:11:29.857Z,97197.80
2019-01-20T08:13:58.013Z,97202.58
2019-01-20T08:16:26.148Z,97194.56
2019-01-20T08:18:54.294Z,97196.05
2019-01-20T08:21:22.432Z,97193.36
2019-01-20T08:23:50.600Z,97199.83
2019-01-20T08:26:18.737Z,97200.27
2019-01-20T08:28:46.866Z,97210.13
2019-01-20T08:31:15.058Z,97215.47
2019-01-20T08:33:43.194Z,97212.83
2019-01-20T08:36:30.425Z,97211.19
2019-01-20T08:38:58.576Z,97213.63
2019-01-20T08:41:26.733Z,97213.77
2019-01-20T08:43:54.860Z,97219.41
2019-01-20T08:46:25.226Z,97223.56
2019-01-20T08:48:53.355Z,97217.78
2019-01-20T08:54:08.811Z,97226.92
2019-01-20T08:56:55.957Z,97229.20
2019-01-20T09:01:57.410Z,97229.72
2019-01-20T09:04:44.473Z,97241.62
2019-01-20T09:07:12.607Z,97236.09
2019-01-20T09:09:40.749Z,97236.34
2019-01-20T09:12:08.884Z,97234.50
2019-01-20T09:14:37.029Z,97236.27
2019-01-20T09:17:05.204Z,97242.52
2019-01-20T09:19:33.344Z,97247.32
2019-01-20T09:22:02.451Z,97248.30
2019-01-20T09:24:30.641Z,97247.53
2019-01-20T09:26:58.783Z,97249.04
2019-01-20T09:29:26.940Z,97249.78
2019-01-20T09:31:55.075Z,97253.25
2019-01-20T09:34:42.307Z,97261.95
2019-01-20T09:39:57.591Z,97270.77
2019-01-20T09:42:25.746Z,97263.79
2019-01-20T09:44:53.873Z,97277.06
2019-01-20T09:47:22.017Z,97278.70
2019-01-20T09:49:50.177Z,97284.34
2019-01-20T09:52:37.222Z,97277.74
2019-01-20T09:55:05.676Z,97279.81
2019-01-20T09:57:33.811Z,97277.32
2019-01-20T10:00:01.942Z,97280.27
2019-01-20T10:02:30.233Z,97277.82
2019-01-20T10:07:45.514Z,97274.19
2019-01-20T10:10:14.231Z,97276.27
2019-01-20T10:12:42.389Z,97278.47
2019-01-20T10:15:10.979Z,97276.20
2019-01-20T10:17:39.114Z,97282.79
2019-01-20T10:20:09.917Z,97283.69
2019-01-20T10:25:25.215Z,97286.47
2019-01-20T10:27:53.367Z,97283.09
2019-01-20T10:30:22.877Z,97283.89
2019-01-20T10:32:51.027Z,97280.35
2019-01-20T10:38:09.101Z,97278.38
2019-01-20T10:40:37.262Z,97285.00
2019-01-20T10:43:05.431Z,97283.12
2019-01-20T10:45:33.607Z,97281.13
2019-01-20T10:48:20.709Z,97281.55
2019-01-20T10:50:48.876Z,97281.98
2019-01-20T10:53:17.150Z,97285.09
2019-01-20T10:55:45.312Z,97286.43
2019-01-20T10:58:13.494Z,97279.17
2019-01-20T11:00:41.915Z,97288.44
2019-01-20T11:03:10.070Z,97288.02
2019-01-20T11:05:38.243Z,97286.69
2019-01-20T11:08:06.494Z,97284.91
2019-01-20T11:10:34.641Z,97288.92
2019-01-20T11:13:02.777Z,97292.52
2019-01-20T11:15:30.911Z,97288.73
2019-01-20T11:17:59.089Z,97285.87
2019-01-20T11:20:27.240Z,97290.86
2019-01-20T11:23:14.310Z,97285.04
2019-01-20T11:26:01.529Z,97287.57
2019-01-20T11:28:48.757Z,97288.22
2019-01-20T11:31:16.920Z,97286.64
2019-01-20T11:33:45.053Z,97286.80
2019-01-20T11:36:13.230Z,97293.80
2019-01-20T11:38:41.413Z,97284.28
2019-01-20T11:41:28.529Z,97286.34
2019-01-20T11:43:56.625Z,97292.81
2019-01-20T11:46:24.807Z,97283.16
2019-01-20T11:49:12.017Z,97282.39
2019-01-20T11:51:40.216Z,97283.05
2019-01-20T11:54:27.428Z,97284.95
2019-01-20T11:56:55.617Z,97281.97
2019-01-20T11:59:23.764Z,97286.50
2019-01-20T12:01:51.918Z,97282.05
2019-01-20T12:04:20.090Z,97277.56
2019-01-20T12:06:48.391Z,97276.84
2019-01-20T12:09:16.565Z,97279.52
2019-01-20T12:14:23.954Z,97289.82
2019-01-20T12:16:48.209Z,97280.56
2019-01-20T12:19:16.493Z,97279.28
2019-01-20T12:22:03.572Z,97278.27
2019-01-20T12:24:31.745Z,97279.37
2019-01-20T12:26:59.875Z,97276.24
2019-01-20T12:29:28.027Z,97278.56
2019-01-20T12:31:56.174Z,97273.30
2019-01-20T12:34:43.244Z,97271.50
2019-01-20T12:37:11.410Z,97271.09
2019-01-20T12:39:39.586Z,97270.47
2019-01-20T12:42:07.797Z,97275.03
2019-01-20T12:44:36.068Z,97277.64
2019-01-20T12:47:23.325Z,97272.04
2019-01-20T12:49:51.492Z,97272.83
2019-01-20T12:52:19.684Z,97276.23
2019-01-20T12:54:47.944Z,97265.19
2019-01-20T12:57:16.117Z,97273.23
2019-01-20T12:59:44.259Z,97266.29
2019-01-20T13:02:12.457Z,97272.91
2019-01-20T13:04:40.643Z,97278.95
2019-01-20T13:07:08.806Z,97271.83
2019-01-20T13:09:36.944Z,97273.34
2019-01-20T13:12:05.118Z,97272.11
2019-01-20T13:14:38.981Z,97273.87
2019-01-20T13:17:03.155Z,97274.20
2019-01-20T13:19:31.281Z,97274.80
2019-01-20T13:21:59.487Z,97278.42
2019-01-20T13:27:01.213Z,97275.78
2019-01-20T13:29:29.363Z,97273.77
2019-01-20T13:31:57.541Z,97281.73
2019-01-20T13:34:25.689Z,97277.72
2019-01-20T13:36:53.875Z,97274.02
2019-01-20T13:39:22.042Z,97273.98
2019-01-20T13:41:50.241Z,97277.98
2019-01-20T13:44:18.370Z,97271.66
2019-01-20T13:46:46.509Z,97277.67
2019-01-20T13:51:48.729Z,97270.31
2019-01-20T13:54:16.915Z,97275.39
2019-01-20T13:56:45.097Z,97279.27
2019-01-20T13:59:13.257Z,97281.60
2019-01-20T14:01:41.435Z,97285.41
2019-01-20T14:04:09.621Z,97281.22
2019-01-20T14:09:24.937Z,97282.59
2019-01-20T14:11:53.081Z,97286.24
2019-01-20T14:14:21.221Z,97283.55
2019-01-20T14:16:49.422Z,97285.06
2019-01-20T14:19:21.730Z,97288.40
2019-01-20T14:22:06.256Z,97289.30
2019-01-20T14:24:34.429Z,97288.83
2019-01-20T14:27:02.601Z,97290.21
2019-01-20T14:29:30.760Z,97291.20
2019-01-20T14:31:58.876Z,97294.75
2019-01-20T14:34:27.053Z,97296.80
2019-01-20T14:36:55.256Z,97303.13
2019-01-20T14:39:42.498Z,97301.09
2019-01-20T14:42:10.635Z,97307.61
2019-01-20T14:44:38.780Z,97303.57
2019-01-20T14:47:06.959Z,97302.65
2019-01-20T14:49:35.286Z,97311.13
2019-01-20T14:52:03.481Z,97304.31
2019-01-20T14:54:31.629Z,97313.08
2019-01-20T14:56:59.863Z,97314.26
2019-01-20T14:59:28.066Z,97311.31
2019-01-20T15:04:43.369Z,97316.04
2019-01-20T15:07:11.556Z,97317.77
2019-01-20T15:09:39.709Z,97317.66
2019-01-20T15:12:07.897Z,97321.92
2019-01-20T15:14:36.102Z,97322.77
2019-01-20T15:17:04.243Z,97326.66
2019-01-20T15:19:32.465Z,97321.28
2019-01-20T15:22:00.599Z,97324.72
2019-01-20T15:24:31.400Z,97326.06
2019-01-20T15:26:58.588Z,97328.92
2019-01-20T15:29:26.784Z,97327.52
2019-01-20T15:31:54.945Z,97329.50
2019-01-20T15:34:23.170Z,97330.47
2019-01-20T15:36:51.432Z,97327.94
2019-01-20T15:39:19.586Z,97327.63
2019-01-20T15:41:47.778Z,97336.28
2019-01-20T15:44:15.916Z,97335.20
2019-01-20T15:46:44.173Z,97335.69
2019-01-20T15:49:12.400Z,97334.98
2019-01-20T15:51:40.553Z,97330.58
2019-01-20T15:54:08.756Z,97340.31
2019-01-20T15:56:36.938Z,97337.00
2019-01-20T15:59:05.112Z,97336.20
2019-01-20T16:01:33.269Z,97338.64
2019-01-20T16:04:01.478Z,97344.25
2019-01-20T16:06:29.665Z,97344.48
2019-01-20T16:08:57.824Z,97341.83
2019-01-20T16:11:26.109Z,97347.27
2019-01-20T16:13:54.257Z,97352.17
2019-01-20T16:16:22.515Z,97352.20
2019-01-20T16:18:50.717Z,97352.77
2019-01-20T16:21:38.022Z,97350.45
2019-01-20T16:24:25.127Z,97355.23
2019-01-20T16:26:53.290Z,97356.48
2019-01-20T16:29:21.489Z,97356.91
2019-01-20T16:31:49.684Z,97365.14
2019-01-20T16:34:19.162Z,97366.11
2019-01-20T16:36:47.729Z,97372.64
2019-01-20T16:39:15.930Z,97365.73
2019-01-20T16:44:23.575Z,97373.38
2019-01-20T16:46:51.729Z,97371.60
2019-01-20T16:49:38.980Z,97371.48
2019-01-20T16:52:26.241Z,97378.01
2019-01-20T16:54:54.449Z,97373.09
2019-01-20T16:57:22.637Z,97380.70
2019-01-20T17:00:09.818Z,97384.23
2019-01-20T17:02:37.992Z,97384.38
2019-01-20T17:05:07.442Z,97392.78
2019-01-20T17:07:35.624Z,97391.01
2019-01-20T17:10:03.959Z,97388.27
2019-01-20T17:15:39.814Z,97395.31
2019-01-20T17:18:08.945Z,97391.59
2019-01-20T17:20:37.125Z,97408.09
2019-01-20T17:23:05.391Z,97403.28
2019-01-20T17:25:33.550Z,97408.78
2019-01-20T17:28:07.979Z,97404.19
2019-01-20T17:30:36.189Z,97404.92
2019-01-20T17:33:04.551Z,97412.25
2019-01-20T17:35:32.770Z,97411.70
2019-01-20T17:38:00.945Z,97411.91
2019-01-20T17:40:29.236Z,97417.09
2019-01-20T17:42:57.383Z,97420.95
2019-01-20T17:45:48.517Z,97424.52
2019-01-20T17:48:15.676Z,97428.45
2019-01-20T17:50:44.385Z,97427.06
2019-01-20T17:53:12.760Z,97425.83
2019-01-20T17:55:40.909Z,97428.52
2019-01-20T17:58:09.054Z,97439.20
2019-01-20T18:00:56.391Z,97438.72
2019-01-20T18:03:24.527Z,97396.83
2019-01-20T18:05:52.697Z,97442.73
2019-01-20T18:08:39.926Z,97439.89
2019-01-20T18:11:08.100Z,97443.34
2019-01-20T18:13:55.313Z,97446.95
2019-01-20T18:16:23.487Z,97457.66
2019-01-20T18:18:51.629Z,97465.72
2019-01-20T18:21:19.756Z,97463.71
2019-01-20T18:23:47.945Z,97464.30
2019-01-20T18:26:35.169Z,97470.41
2019-01-20T18:29:03.314Z,97470.23
2019-01-20T18:31:31.480Z,97468.27
2019-01-20T18:33:59.618Z,97470.30
2019-01-20T18:36:46.873Z,97462.22
2019-01-20T18:39:15.024Z,97469.28
2019-01-20T18:41:43.148Z,97467.24
2019-01-20T18:44:11.350Z,97473.22
2019-01-20T18:46:39.505Z,97469.50
2019-01-20T18:49:26.568Z,97467.35
2019-01-20T18:54:21.660Z,97475.37
2019-01-20T18:57:08.766Z,97473.84
2019-01-20T18:59:56.034Z,97477.52
2019-01-20T19:02:24.174Z,97478.58
2019-01-20T19:04:52.356Z,97471.84
2019-01-20T19:07:20.502Z,97481.56
2019-01-20T19:09:48.645Z,97483.34
2019-01-20T19:12:35.894Z,97484.63
2019-01-20T19:18:18.714Z,97481.63
2019-01-20T19:21:00.578Z,97476.67
2019-01-20T19:23:28.752Z,97486.44
2019-01-20T19:25:56.908Z,97493.87
2019-01-20T19:28:25.035Z,97490.30
2019-01-20T19:30:53.189Z,97489.42
2019-01-20T19:33:21.341Z,97490.84
2019-01-20T19:35:49.505Z,97486.15
2019-01-20T19:38:17.649Z,97491.69
2019-01-20T19:40:45.782Z,97491.21
2019-01-20T19:43:33.065Z,97495.07
2019-01-20T19:46:01.275Z,97496.86
2019-01-20T19:48:29.521Z,97496.97
2019-01-20T19:50:57.729Z,97501.02
2019-01-20T19:53:25.925Z,97501.05
2019-01-20T19:55:54.056Z,97505.64
2019-01-20T19:58:22.371Z,97512.35
2019-01-20T20:00:50.511Z,97516.87
2019-01-20T20:03:18.691Z,97517.78
2019-01-20T20:05:46.847Z,97520.33
2019-01-20T20:08:15.097Z,97520.19
2019-01-20T20:10:43.485Z,97524.37
2019-01-20T20:13:11.761Z,97529.23
2019-01-20T20:15:39.944Z,97535.55
2019-01-20T20:18:08.163Z,97532.83
2019-01-20T20:20:36.314Z,97534.91
2019-01-20T20:23:04.514Z,97541.91
2019-01-20T20:25:32.834Z,97546.06
2019-01-20T20:28:01.053Z,97547.81
2019-01-20T20:30:30.576Z,97551.02
2019-01-20T20:32:58.723Z,97552.08
2019-01-20T20:35:26.938Z,97551.09
2019-01-20T20:37:55.190Z,97551.56
2019-01-20T20:40:23.377Z,97556.63
2019-01-20T20:42:51.646Z,97556.74
2019-01-20T20:45:20.380Z,97557.29
2019-01-20T20:48:07.602Z,97563.02
2019-01-20T20:50:35.887Z,97561.56
2019-01-20T20:53:04.125Z,97560.13
2019-01-20T20:55:32.370Z,97562.36
2019-01-20T20:58:00.532Z,97566.62
2019-01-20T21:00:47.834Z,97558.16
2019-01-20T21:03:19.075Z,97565.49
2019-01-20T21:05:47.413Z,97566.72
2019-01-20T21:08:15.636Z,97571.86
2019-01-20T21:10:43.799Z,97571.09
2019-01-20T21:13:12.054Z,97576.38
2019-01-20T21:15:40.559Z,97572.88
2019-01-20T21:18:08.716Z,97570.36
2019-01-20T21:20:36.840Z,97572.92
2019-01-20T21:23:11.770Z,97578.89
2019-01-20T21:25:35.040Z,97581.81
2019-01-20T21:28:22.105Z,97580.22
2019-01-20T21:30:50.281Z,97583.63
2019-01-20T21:33:18.503Z,97583.38
2019-01-20T21:35:47.760Z,97580.88
2019-01-20T21:38:35.633Z,97585.83
2019-01-20T21:41:03.792Z,97586.05
2019-01-20T21:43:31.988Z,97585.39
2019-01-20T21:46:19.103Z,97588.97
2019-01-20T21:48:47.353Z,97593.70
2019-01-20T21:51:15.577Z,97598.34
2019-01-20T21:53:43.749Z,97605.45
2019-01-20T21:56:11.911Z,97610.98
2019-01-20T21:58:40.049Z,97618.75
2019-01-20T22:01:08.191Z,97618.61
2019-01-20T22:06:10.193Z,97621.78
2019-01-20T22:08:38.365Z,97624.99
2019-01-20T22:11:06.512Z,97625.28
2019-01-20T22:13:34.651Z,97621.20
2019-01-20T22:16:21.901Z,97626.66
2019-01-20T22:18:50.048Z,97624.95
2019-01-20T22:21:18.242Z,97625.20
2019-01-20T22:23:46.389Z,97634.77
2019-01-20T22:26:14.534Z,97633.12
2019-01-20T22:28:42.703Z,97632.98
2019-01-20T22:31:10.847Z,97633.86
2019-01-20T22:33:38.990Z,97633.80
2019-01-20T22:36:07.131Z,97635.45
2019-01-20T22:38:35.306Z,97630.24
2019-01-20T22:41:03.458Z,97630.66
2019-01-20T22:43:31.604Z,97639.59
2019-01-20T22:51:56.262Z,97645.41
2019-01-20T22:54:43.534Z,97649.84
2019-01-20T22:57:11.715Z,97650.84
2019-01-20T22:59:39.864Z,97649.16
2019-01-20T23:02:08.030Z,97651.74
2019-01-20T23:04:36.218Z,97652.45
2019-01-20T23:07:04.444Z,97652.90
2019-01-20T23:09:32.572Z,97651.91
2019-01-20T23:12:00.710Z,97650.31
2019-01-20T23:14:28.847Z,97645.37
2019-01-20T23:16:56.976Z,97649.27
2019-01-20T23:19:25.149Z,97646.48
2019-01-20T23:21:53.280Z,97647.11
2019-01-20T23:24:21.450Z,97644.88
2019-01-20T23:26:49.584Z,97601.32
2019-01-20T23:29:17.753Z,97649.84
2019-01-20T23:31:45.899Z,97649.17
2019-01-20T23:34:14.030Z,97651.01
2019-01-20T23:36:42.205Z,97655.59
2019-01-20T23:39:10.342Z,97652.34
2019-01-20T23:41:38.499Z,97644.49
2019-01-20T23:44:06.639Z,97654.13
2019-01-20T23:46:34.781Z,97650.77
2019-01-20T23:49:02.989Z,97646.05
2019-01-20T23:51:31.138Z,97646.83
2019-01-20T23:54:18.240Z,97647.97
2019-01-20T23:56:46.462Z,97644.03
2019-01-20T23:59:14.604Z,97646.06
